UTA weather

Mutare Airport
Mutare, Manicaland Province, Zimbabwe

Public forecast

Using degrees Celsius for public forecast. Weather courtesy of forecast.io.

METAR (pilot weather report)

Closest report is Chimoio Airport, 46.4 nm (86.0 km) ESE. Retrieved 2019/05/26 10:00 UTC (34 minutes ago):

FQCH 261000Z /////KT 9999 BKN015 21/13 Q1024

TAF (pilot weather forecast)

Closest forecast is Chimoio Airport, 46.4 nm (86.0 km) ESE. Retrieved 2019/05/26 06:00 UTC (5 hours ago):

TAF FQCH 260400Z 2606/2706 15010KT 9999 BKN020 TX22/2613Z TN13/2703Z BECMG 2612/2614 09010KT BECMG 2618/2620 23008KT FEW025